createdAt,value
2018-11-06T00:00:36.645Z,27.40
2018-11-06T00:01:43.640Z,26.90
2018-11-06T00:02:36.656Z,27.60
2018-11-06T00:03:36.645Z,27.90
2018-11-06T00:04:36.691Z,28.20
2018-11-06T00:05:36.623Z,28.20
2018-11-06T00:06:36.704Z,28.50
2018-11-06T00:07:36.603Z,26.80
2018-11-06T00:08:36.549Z,27.70
2018-11-06T00:09:36.625Z,27.40
2018-11-06T00:10:36.599Z,27.30
2018-11-06T00:11:36.571Z,26.70
2018-11-06T00:12:36.587Z,28.70
2018-11-06T00:13:36.524Z,26.90
2018-11-06T00:14:36.530Z,26.90
2018-11-06T00:15:36.572Z,27.50
2018-11-06T00:16:36.482Z,28.50
2018-11-06T00:17:36.511Z,26.70
2018-11-06T00:18:36.501Z,28.20
2018-11-06T00:19:36.483Z,26.70
2018-11-06T00:20:36.634Z,27.50
2018-11-06T00:21:36.411Z,27.50
2018-11-06T00:22:36.476Z,27.30
2018-11-06T00:23:36.459Z,27.70
2018-11-06T00:24:36.418Z,26.70
2018-11-06T00:25:36.418Z,27.10
2018-11-06T00:26:36.501Z,27.30
2018-11-06T00:27:36.406Z,26.80
2018-11-06T00:28:36.377Z,27.50
2018-11-06T00:29:36.369Z,27.30
2018-11-06T00:30:36.402Z,27.90
2018-11-06T00:31:36.338Z,28.60
2018-11-06T00:32:36.373Z,28.30
2018-11-06T00:33:36.329Z,28.10
2018-11-06T00:34:36.261Z,27.20
2018-11-06T00:35:36.321Z,28.10
2018-11-06T00:36:36.345Z,27.00
2018-11-06T00:37:36.278Z,27.90
2018-11-06T00:38:36.262Z,27.90
2018-11-06T00:39:36.311Z,27.50
2018-11-06T00:40:36.252Z,27.30
2018-11-06T00:41:36.243Z,27.80
2018-11-06T00:42:36.223Z,27.30
2018-11-06T00:43:36.247Z,27.40
2018-11-06T00:44:36.199Z,27.70
2018-11-06T00:45:36.144Z,27.30
2018-11-06T00:46:36.179Z,27.50
2018-11-06T00:47:36.173Z,27.70
2018-11-06T00:48:36.154Z,26.90
2018-11-06T00:49:36.156Z,27.20
2018-11-06T00:50:36.140Z,27.00
2018-11-06T00:51:36.132Z,25.80
2018-11-06T00:52:36.119Z,26.10
2018-11-06T00:53:36.110Z,26.30
2018-11-06T00:54:36.093Z,26.60
2018-11-06T00:55:36.117Z,27.10
2018-11-06T00:56:36.072Z,26.20
2018-11-06T00:57:36.104Z,26.50
2018-11-06T00:58:36.181Z,26.60
2018-11-06T00:59:36.051Z,28.50
2018-11-06T01:00:36.085Z,26.80
2018-11-06T01:01:35.988Z,26.20
2018-11-06T01:02:35.955Z,26.40
2018-11-06T01:03:35.959Z,27.30
2018-11-06T01:04:36.056Z,26.20
2018-11-06T01:05:36.013Z,27.70
2018-11-06T01:06:35.961Z,27.70
2018-11-06T01:07:36.004Z,27.30
2018-11-06T01:08:35.906Z,27.50
2018-11-06T01:09:35.931Z,28.00
2018-11-06T01:10:35.926Z,28.00
2018-11-06T01:11:35.919Z,28.40
2018-11-06T01:12:35.890Z,29.10
2018-11-06T01:13:35.973Z,29.20
2018-11-06T01:14:35.879Z,29.20
2018-11-06T01:15:35.864Z,28.30
2018-11-06T01:16:35.803Z,29.50
2018-11-06T01:17:35.858Z,29.50
2018-11-06T01:18:35.838Z,29.10
2018-11-06T01:19:35.801Z,28.90
2018-11-06T01:20:35.809Z,29.10
2018-11-06T01:21:35.804Z,28.00
2018-11-06T01:22:35.819Z,29.20
2018-11-06T01:23:35.789Z,29.20
2018-11-06T01:24:35.758Z,29.20
2018-11-06T01:25:35.763Z,29.20
2018-11-06T01:26:35.737Z,28.40
2018-11-06T01:27:35.773Z,28.70
2018-11-06T01:28:35.729Z,28.10
2018-11-06T01:29:35.668Z,28.00
2018-11-06T01:30:35.662Z,28.90
2018-11-06T01:31:35.707Z,28.00
2018-11-06T01:32:35.710Z,30.10
2018-11-06T01:33:35.699Z,30.70
2018-11-06T01:34:35.662Z,29.30
2018-11-06T01:35:35.605Z,28.30
2018-11-06T01:36:35.649Z,28.60
2018-11-06T01:37:35.663Z,29.40
2018-11-06T01:38:35.630Z,28.60
2018-11-06T01:39:35.617Z,28.60
2018-11-06T01:40:35.598Z,28.00
2018-11-06T01:41:35.554Z,27.80
2018-11-06T01:42:35.601Z,28.70
2018-11-06T01:43:35.523Z,26.70
2018-11-06T01:44:35.545Z,27.20
2018-11-06T01:45:35.495Z,27.20
2018-11-06T01:46:35.534Z,27.20
2018-11-06T01:47:35.501Z,27.50
2018-11-06T01:48:35.505Z,28.30
2018-11-06T01:49:35.496Z,26.60
2018-11-06T01:50:35.519Z,27.50
2018-11-06T01:51:35.475Z,28.70
2018-11-06T01:52:35.460Z,27.50
2018-11-06T01:53:35.482Z,27.80
2018-11-06T01:54:35.389Z,27.70
2018-11-06T01:55:35.421Z,28.60
2018-11-06T01:56:35.421Z,28.20
2018-11-06T01:57:35.460Z,27.20
2018-11-06T01:58:35.418Z,27.60
2018-11-06T01:59:35.340Z,29.70
2018-11-06T02:00:35.375Z,29.00
2018-11-06T02:01:35.323Z,28.00
2018-11-06T02:02:35.352Z,28.50
2018-11-06T02:03:35.408Z,28.60
2018-11-06T02:04:35.333Z,28.20
2018-11-06T02:05:35.336Z,29.20
2018-11-06T02:06:35.309Z,29.80
2018-11-06T02:07:35.308Z,29.40
2018-11-06T02:08:35.336Z,27.90
2018-11-06T02:09:35.277Z,29.10
2018-11-06T02:10:35.220Z,29.40
2018-11-06T02:11:35.262Z,29.20
2018-11-06T02:12:35.345Z,29.50
2018-11-06T02:13:35.252Z,28.50
2018-11-06T02:14:35.224Z,28.10
2018-11-06T02:15:35.214Z,29.50
2018-11-06T02:16:35.265Z,28.40
2018-11-06T02:17:35.189Z,29.00
2018-11-06T02:18:35.230Z,29.00
2018-11-06T02:19:35.164Z,28.70
2018-11-06T02:20:35.159Z,29.90
2018-11-06T02:21:35.100Z,29.30
2018-11-06T02:22:35.241Z,30.00
2018-11-06T02:23:35.121Z,30.00
2018-11-06T02:24:35.154Z,29.30
2018-11-06T02:25:35.096Z,30.30
2018-11-06T02:26:35.039Z,29.30
2018-11-06T02:27:35.089Z,29.70
2018-11-06T02:28:35.118Z,30.70
2018-11-06T02:29:35.048Z,30.00
2018-11-06T02:30:35.003Z,31.00
2018-11-06T02:31:35.029Z,30.60
2018-11-06T02:32:35.074Z,31.50
2018-11-06T02:33:35.039Z,32.50
2018-11-06T02:34:35.007Z,30.70
2018-11-06T02:35:34.948Z,30.80
2018-11-06T02:36:34.971Z,30.60
2018-11-06T02:37:34.967Z,31.50
2018-11-06T02:38:34.993Z,31.40
2018-11-06T02:39:34.937Z,30.70
2018-11-06T02:40:34.974Z,31.60
2018-11-06T02:41:34.920Z,33.90
2018-11-06T02:42:34.908Z,34.60
2018-11-06T02:43:34.854Z,34.90
2018-11-06T02:44:34.885Z,35.40
2018-11-06T02:45:34.910Z,35.60
2018-11-06T02:46:34.873Z,36.30
2018-11-06T02:47:34.858Z,37.00
2018-11-06T02:48:34.811Z,37.60
2018-11-06T02:49:34.851Z,36.50
2018-11-06T02:50:34.847Z,38.10
2018-11-06T02:51:34.841Z,37.40
2018-11-06T02:52:34.817Z,37.50
2018-11-06T02:53:34.795Z,38.40
2018-11-06T02:54:34.775Z,37.10
2018-11-06T02:55:34.796Z,36.90
2018-11-06T02:56:34.751Z,37.50
2018-11-06T02:57:34.695Z,37.00
2018-11-06T02:58:34.738Z,37.70
2018-11-06T02:59:34.732Z,37.60
2018-11-06T03:00:34.743Z,37.30
2018-11-06T03:01:34.706Z,37.10
2018-11-06T03:02:34.701Z,36.70
2018-11-06T03:03:34.714Z,37.30
2018-11-06T03:04:34.667Z,36.80
2018-11-06T03:05:34.660Z,37.80
2018-11-06T03:06:34.692Z,39.00
2018-11-06T03:07:34.647Z,37.80
2018-11-06T03:08:34.621Z,38.00
2018-11-06T03:09:34.630Z,37.20
2018-11-06T03:10:34.603Z,38.90
2018-11-06T03:11:34.634Z,38.70
2018-11-06T03:12:34.597Z,39.30
2018-11-06T03:13:34.531Z,39.70
2018-11-06T03:14:34.517Z,39.10
2018-11-06T03:15:34.608Z,37.10
2018-11-06T03:16:34.615Z,37.70
2018-11-06T03:17:34.482Z,37.40
2018-11-06T03:18:34.529Z,37.70
2018-11-06T03:19:34.537Z,38.10
2018-11-06T03:20:34.449Z,37.70
2018-11-06T03:21:34.618Z,39.00
2018-11-06T03:22:34.464Z,35.80
2018-11-06T03:23:34.474Z,37.00
2018-11-06T03:24:34.451Z,36.50
2018-11-06T03:25:34.531Z,36.00
2018-11-06T03:26:34.472Z,36.20
2018-11-06T03:27:34.428Z,32.50
2018-11-06T03:28:34.419Z,34.70
2018-11-06T03:29:34.398Z,35.40
2018-11-06T03:30:34.380Z,33.70
2018-11-06T03:31:34.383Z,34.20
2018-11-06T03:32:34.366Z,33.20
2018-11-06T03:33:34.395Z,34.40
2018-11-06T03:34:34.306Z,33.00
2018-11-06T03:35:34.338Z,32.90
2018-11-06T03:36:34.323Z,34.90
2018-11-06T03:37:34.315Z,34.80
2018-11-06T03:38:34.289Z,32.60
2018-11-06T03:39:34.282Z,32.90
2018-11-06T03:40:34.277Z,34.80
2018-11-06T03:41:34.256Z,32.60
2018-11-06T03:42:34.201Z,32.90
2018-11-06T03:43:34.225Z,33.70
2018-11-06T03:44:34.240Z,33.20
2018-11-06T03:45:34.223Z,32.70
2018-11-06T03:46:34.204Z,33.70
2018-11-06T03:47:34.192Z,33.20
2018-11-06T03:48:34.165Z,30.90
2018-11-06T03:49:34.125Z,30.30
2018-11-06T03:50:34.176Z,30.60
2018-11-06T03:51:34.159Z,31.00
2018-11-06T03:52:34.133Z,30.20
2018-11-06T03:53:34.151Z,31.50
2018-11-06T03:54:34.120Z,30.40
2018-11-06T03:55:34.122Z,30.10
2018-11-06T03:56:34.098Z,29.30
2018-11-06T03:57:34.040Z,29.30
2018-11-06T03:58:34.069Z,30.60
2018-11-06T03:59:34.061Z,31.30
2018-11-06T04:00:34.079Z,30.40
2018-11-06T04:01:34.002Z,31.90
2018-11-06T04:02:34.045Z,32.60
2018-11-06T04:03:34.017Z,33.70
2018-11-06T04:04:34.007Z,33.10
2018-11-06T04:05:34.035Z,34.20
2018-11-06T04:06:33.984Z,32.70
2018-11-06T04:07:33.932Z,34.50
2018-11-06T04:08:33.970Z,35.80
2018-11-06T04:09:33.907Z,35.40
2018-11-06T04:10:33.976Z,33.90
2018-11-06T04:11:33.931Z,32.90
2018-11-06T04:12:34.011Z,34.40
2018-11-06T04:13:33.859Z,34.90
2018-11-06T04:14:33.945Z,33.70
2018-11-06T04:15:33.870Z,33.00
2018-11-06T04:16:33.880Z,32.40
2018-11-06T04:17:33.878Z,33.70
2018-11-06T04:18:33.807Z,32.50
2018-11-06T04:19:33.845Z,31.30
2018-11-06T04:20:33.852Z,33.30
2018-11-06T04:21:33.828Z,31.40
2018-11-06T04:22:33.840Z,32.60
2018-11-06T04:23:33.808Z,29.60
2018-11-06T04:24:33.877Z,27.80
2018-11-06T04:25:33.773Z,26.20
2018-11-06T04:26:33.763Z,24.70
2018-11-06T04:27:33.754Z,24.80
2018-11-06T04:28:33.852Z,25.60
2018-11-06T04:29:33.734Z,23.80
2018-11-06T04:30:33.725Z,24.10
2018-11-06T04:31:33.745Z,23.60
2018-11-06T04:32:33.767Z,24.20
2018-11-06T04:33:33.715Z,23.60
2018-11-06T04:34:33.640Z,23.40
2018-11-06T04:35:33.672Z,24.00
2018-11-06T04:36:33.680Z,22.90
2018-11-06T04:37:33.697Z,24.10
2018-11-06T04:38:33.664Z,23.60
2018-11-06T04:39:33.623Z,23.40
2018-11-06T04:40:33.610Z,23.10
2018-11-06T04:41:33.598Z,22.00
2018-11-06T04:42:33.614Z,24.50
2018-11-06T04:43:33.572Z,23.70
2018-11-06T04:44:33.572Z,24.80
2018-11-06T04:45:33.549Z,25.90
2018-11-06T04:46:33.571Z,27.20
2018-11-06T04:47:33.531Z,27.00
2018-11-06T04:48:33.526Z,26.70
2018-11-06T04:49:33.507Z,27.80
2018-11-06T04:50:33.495Z,27.10
2018-11-06T04:51:33.514Z,26.50
2018-11-06T04:52:33.478Z,26.00
2018-11-06T04:53:33.522Z,24.70
2018-11-06T04:54:33.452Z,24.10
2018-11-06T04:55:33.477Z,23.50
2018-11-06T04:56:33.437Z,23.60
2018-11-06T04:57:33.424Z,22.60
2018-11-06T04:58:33.436Z,23.60
2018-11-06T04:59:33.397Z,22.40
2018-11-06T05:00:33.388Z,21.80
2018-11-06T05:01:33.378Z,21.20
2018-11-06T05:02:33.377Z,22.00
2018-11-06T05:03:33.351Z,21.80
2018-11-06T05:04:33.341Z,21.60
2018-11-06T05:05:33.328Z,21.50
2018-11-06T05:06:33.323Z,22.30
2018-11-06T05:07:33.302Z,22.20
2018-11-06T05:08:33.255Z,21.30
2018-11-06T05:09:33.333Z,21.70
2018-11-06T05:10:33.274Z,21.20
2018-11-06T05:11:33.469Z,21.20
2018-11-06T05:12:33.256Z,20.80
2018-11-06T05:13:33.240Z,21.20
2018-11-06T05:14:33.246Z,21.00
2018-11-06T05:15:33.233Z,21.10
2018-11-06T05:16:33.208Z,21.80
2018-11-06T05:17:33.153Z,21.00
2018-11-06T05:18:33.165Z,22.00
2018-11-06T05:19:33.179Z,21.00
2018-11-06T05:20:33.200Z,20.90
2018-11-06T05:21:33.271Z,21.60
2018-11-06T05:22:33.146Z,21.20
2018-11-06T05:23:33.133Z,21.90
2018-11-06T05:24:33.127Z,21.90
2018-11-06T05:25:33.260Z,21.50
2018-11-06T05:26:33.053Z,21.90
2018-11-06T05:27:33.177Z,22.50
2018-11-06T05:28:33.083Z,23.20
2018-11-06T05:29:33.096Z,23.70
2018-11-06T05:30:33.107Z,22.40
2018-11-06T05:31:33.023Z,23.70
2018-11-06T05:32:33.035Z,24.90
2018-11-06T05:33:33.031Z,24.40
2018-11-06T05:34:33.051Z,24.50
2018-11-06T05:35:33.291Z,24.50
2018-11-06T05:36:32.994Z,24.60
2018-11-06T05:37:33.006Z,25.60
2018-11-06T05:38:32.924Z,25.00
2018-11-06T05:39:33.032Z,25.40
2018-11-06T05:40:32.902Z,25.00
2018-11-06T05:41:32.995Z,25.90
2018-11-06T05:42:32.888Z,26.20
2018-11-06T05:43:32.926Z,25.70
2018-11-06T05:44:32.859Z,27.10
2018-11-06T05:45:32.982Z,28.00
2018-11-06T05:46:32.883Z,27.90
2018-11-06T05:47:32.849Z,26.70
2018-11-06T05:48:32.870Z,25.90
2018-11-06T05:49:32.853Z,26.60
2018-11-06T05:50:32.839Z,26.80
2018-11-06T05:51:32.830Z,26.30
2018-11-06T05:52:32.815Z,26.60
2018-11-06T05:53:32.919Z,25.90
2018-11-06T05:54:32.791Z,25.80
2018-11-06T05:55:32.738Z,25.00
2018-11-06T05:56:32.776Z,25.50
2018-11-06T05:57:32.727Z,25.60
2018-11-06T05:58:32.707Z,26.30
2018-11-06T05:59:32.777Z,26.00
2018-11-06T06:00:32.749Z,26.00
2018-11-06T06:01:32.755Z,26.70
2018-11-06T06:02:32.710Z,26.20
2018-11-06T06:03:32.703Z,26.30
2018-11-06T06:04:32.646Z,24.90
2018-11-06T06:05:32.684Z,26.50
2018-11-06T06:06:32.662Z,26.40
2018-11-06T06:07:32.691Z,24.90
2018-11-06T06:08:32.646Z,23.80
2018-11-06T06:09:32.634Z,26.20
2018-11-06T06:10:32.619Z,25.00
2018-11-06T06:11:32.611Z,24.20
2018-11-06T06:12:32.633Z,23.10
2018-11-06T06:13:32.585Z,22.60
2018-11-06T06:14:32.651Z,23.00
2018-11-06T06:15:32.520Z,23.00
2018-11-06T06:16:32.572Z,22.20
2018-11-06T06:17:32.569Z,23.00
2018-11-06T06:18:32.531Z,21.10
2018-11-06T06:19:32.551Z,21.70
2018-11-06T06:20:32.614Z,22.00
2018-11-06T06:21:32.504Z,21.30
2018-11-06T06:22:32.530Z,20.10
2018-11-06T06:23:32.516Z,20.00
2018-11-06T06:24:32.417Z,17.90
2018-11-06T06:25:32.456Z,18.20
2018-11-06T06:26:32.476Z,17.50
2018-11-06T06:27:32.392Z,17.70
2018-11-06T06:28:32.526Z,17.50
2018-11-06T06:29:32.370Z,18.00
2018-11-06T06:30:32.423Z,17.90
2018-11-06T06:31:32.385Z,17.40
2018-11-06T06:32:32.407Z,18.20
2018-11-06T06:33:32.407Z,17.90
2018-11-06T06:34:32.386Z,18.50
2018-11-06T06:35:32.341Z,18.50
2018-11-06T06:36:32.332Z,18.30
2018-11-06T06:37:32.379Z,18.70
2018-11-06T06:38:32.346Z,19.20
2018-11-06T06:39:32.315Z,18.80
2018-11-06T06:40:32.290Z,19.90
2018-11-06T06:41:32.230Z,19.80
2018-11-06T06:42:32.324Z,19.20
2018-11-06T06:43:32.297Z,20.00
2018-11-06T06:44:32.229Z,19.90
2018-11-06T06:45:32.233Z,19.50
2018-11-06T06:46:32.239Z,19.80
2018-11-06T06:47:32.207Z,20.30
2018-11-06T06:48:32.202Z,20.30
2018-11-06T06:49:32.226Z,19.60
2018-11-06T06:50:32.176Z,19.90
2018-11-06T06:51:32.165Z,19.40
2018-11-06T06:52:32.157Z,19.50
2018-11-06T06:53:32.167Z,20.10
2018-11-06T06:54:32.452Z,20.50
2018-11-06T06:55:32.155Z,20.10
2018-11-06T06:56:32.140Z,19.70
2018-11-06T06:57:32.111Z,20.00
2018-11-06T06:58:32.094Z,19.00
2018-11-06T06:59:32.063Z,20.20
2018-11-06T07:00:32.068Z,18.20
2018-11-06T07:01:32.055Z,19.00
2018-11-06T07:02:32.068Z,20.10
2018-11-06T07:03:32.044Z,19.80
2018-11-06T07:04:32.062Z,19.40
2018-11-06T07:05:32.012Z,18.50
2018-11-06T07:06:32.006Z,18.50
2018-11-06T07:07:31.983Z,17.90
2018-11-06T07:08:31.933Z,17.80
2018-11-06T07:09:32.054Z,17.90
2018-11-06T07:10:31.993Z,18.80
2018-11-06T07:11:31.954Z,17.80
2018-11-06T07:12:31.934Z,18.30
2018-11-06T07:13:31.949Z,17.70
2018-11-06T07:14:31.907Z,17.70
2018-11-06T07:15:31.901Z,18.30
2018-11-06T07:16:31.892Z,18.20
2018-11-06T07:17:32.000Z,18.00
2018-11-06T07:18:31.965Z,17.10
2018-11-06T07:19:31.985Z,17.50
2018-11-06T07:20:31.854Z,16.90
2018-11-06T07:21:31.793Z,17.60
2018-11-06T07:22:31.864Z,16.80
2018-11-06T07:23:31.887Z,17.40
2018-11-06T07:24:31.850Z,17.10
2018-11-06T07:25:31.803Z,17.10
2018-11-06T07:26:31.785Z,17.50
2018-11-06T07:27:31.839Z,17.20
2018-11-06T07:28:31.762Z,17.10
2018-11-06T07:29:31.769Z,16.60
2018-11-06T07:30:31.749Z,16.70
2018-11-06T07:31:31.737Z,17.80
2018-11-06T07:32:31.729Z,16.70
2018-11-06T07:33:31.776Z,16.30
2018-11-06T07:34:31.760Z,16.30
2018-11-06T07:35:31.759Z,16.70
2018-11-06T07:36:31.674Z,17.40
2018-11-06T07:37:31.690Z,16.70
2018-11-06T07:38:31.659Z,16.60
2018-11-06T07:39:31.648Z,16.50
2018-11-06T07:40:31.707Z,16.90
2018-11-06T07:41:31.628Z,16.90
2018-11-06T07:42:31.635Z,16.00
2018-11-06T07:43:31.745Z,17.00
2018-11-06T07:44:31.589Z,16.40
2018-11-06T07:45:31.579Z,15.70
2018-11-06T07:46:31.522Z,16.40
2018-11-06T07:47:31.553Z,16.10
2018-11-06T07:48:31.584Z,16.30
2018-11-06T07:49:31.503Z,15.90
2018-11-06T07:50:31.575Z,16.10
2018-11-06T07:51:31.516Z,16.00
2018-11-06T07:52:31.499Z,15.90
2018-11-06T07:53:31.543Z,15.90
2018-11-06T07:54:31.483Z,16.30
2018-11-06T07:55:31.493Z,16.60
2018-11-06T07:56:31.496Z,15.80
2018-11-06T07:57:31.455Z,15.50
2018-11-06T07:58:31.440Z,16.20
2018-11-06T07:59:31.427Z,15.80
2018-11-06T08:00:31.473Z,16.40
2018-11-06T08:01:31.414Z,15.00
2018-11-06T08:02:31.429Z,15.30
2018-11-06T08:03:31.383Z,16.00
2018-11-06T08:04:31.396Z,15.20
2018-11-06T08:05:31.363Z,15.60
2018-11-06T08:06:31.431Z,16.40
2018-11-06T08:07:31.365Z,15.70
2018-11-06T08:08:31.331Z,15.20
2018-11-06T08:09:31.375Z,15.70
2018-11-06T08:10:31.269Z,15.70
2018-11-06T08:11:31.292Z,15.70
2018-11-06T08:12:31.392Z,15.80
2018-11-06T08:13:31.275Z,15.50
2018-11-06T08:14:31.355Z,15.60
2018-11-06T08:15:31.218Z,15.40
2018-11-06T08:16:31.411Z,14.50
2018-11-06T08:17:31.333Z,15.90
2018-11-06T08:18:31.225Z,15.20
2018-11-06T08:19:31.218Z,16.20
2018-11-06T08:20:31.188Z,15.30
2018-11-06T08:21:31.215Z,15.80
2018-11-06T08:22:31.264Z,15.40
2018-11-06T08:23:31.163Z,15.20
2018-11-06T08:24:31.182Z,15.60
2018-11-06T08:25:31.149Z,15.40
2018-11-06T08:26:31.199Z,15.50
2018-11-06T08:27:31.173Z,15.20
2018-11-06T08:28:31.136Z,14.80
2018-11-06T08:29:31.103Z,16.10
2018-11-06T08:30:31.166Z,15.30
2018-11-06T08:31:31.435Z,15.20
2018-11-06T08:32:31.716Z,15.40
2018-11-06T08:33:31.226Z,15.20
2018-11-06T08:34:31.043Z,15.30
2018-11-06T08:35:31.040Z,15.00
2018-11-06T08:36:31.115Z,15.80
2018-11-06T08:37:31.018Z,16.40
2018-11-06T08:38:31.146Z,15.00
2018-11-06T08:39:30.992Z,15.60
2018-11-06T08:40:30.982Z,15.50
2018-11-06T08:41:30.966Z,15.40
2018-11-06T08:42:31.026Z,15.90
2018-11-06T08:43:31.150Z,15.30
2018-11-06T08:44:30.941Z,15.30
2018-11-06T08:45:30.926Z,15.60
2018-11-06T08:46:30.896Z,16.00
2018-11-06T08:47:30.907Z,16.10
2018-11-06T08:48:30.892Z,16.00
2018-11-06T08:49:30.886Z,17.00
2018-11-06T08:50:30.915Z,15.30
2018-11-06T08:51:30.864Z,15.80
2018-11-06T08:52:30.846Z,15.90
2018-11-06T08:53:30.837Z,16.50
2018-11-06T08:54:30.833Z,16.60
2018-11-06T08:55:30.842Z,16.40
2018-11-06T08:56:30.840Z,17.20
2018-11-06T08:57:30.835Z,16.20
2018-11-06T08:58:30.794Z,17.00
2018-11-06T08:59:30.776Z,16.20
2018-11-06T09:00:30.791Z,15.70
2018-11-06T09:01:30.751Z,16.00
2018-11-06T09:02:30.765Z,16.70
2018-11-06T09:03:30.758Z,15.90
2018-11-06T09:04:30.719Z,15.50
2018-11-06T09:05:30.711Z,15.80
2018-11-06T09:06:30.698Z,16.30
2018-11-06T09:07:30.701Z,15.50
2018-11-06T09:08:30.743Z,15.90
2018-11-06T09:09:30.631Z,16.50
2018-11-06T09:10:30.729Z,16.80
2018-11-06T09:11:30.642Z,16.00
2018-11-06T09:12:30.706Z,16.90
2018-11-06T09:13:30.629Z,17.00
2018-11-06T09:14:30.625Z,17.10
2018-11-06T09:15:30.691Z,16.70
2018-11-06T09:16:30.585Z,17.50
2018-11-06T09:17:30.622Z,17.20
2018-11-06T09:18:30.569Z,16.80
2018-11-06T09:19:30.643Z,17.30
2018-11-06T09:20:30.546Z,16.60
2018-11-06T09:21:30.543Z,17.90
2018-11-06T09:22:30.507Z,17.80
2018-11-06T09:23:30.503Z,17.90
2018-11-06T09:24:30.524Z,17.50
2018-11-06T09:25:30.505Z,17.20
2018-11-06T09:26:30.499Z,17.30
2018-11-06T09:27:30.421Z,17.10
2018-11-06T09:28:30.516Z,17.70
2018-11-06T09:29:30.514Z,19.80
2018-11-06T09:30:30.443Z,17.50
2018-11-06T09:31:30.458Z,17.30
2018-11-06T09:32:30.434Z,17.00
2018-11-06T09:33:30.414Z,18.00
2018-11-06T09:34:30.437Z,17.50
2018-11-06T09:35:30.394Z,17.40
2018-11-06T09:36:30.368Z,17.20
2018-11-06T09:37:30.358Z,17.80
2018-11-06T09:38:30.348Z,18.20
2018-11-06T09:39:30.393Z,16.80
2018-11-06T09:41:30.393Z,16.50
2018-11-06T09:42:30.306Z,16.80
2018-11-06T09:43:30.302Z,16.70
2018-11-06T09:44:30.317Z,15.90
2018-11-06T09:45:30.314Z,17.20
2018-11-06T09:46:30.278Z,16.80
2018-11-06T09:47:30.251Z,17.00
2018-11-06T09:48:30.275Z,17.60
2018-11-06T09:49:30.227Z,17.20
2018-11-06T09:50:30.219Z,16.90
2018-11-06T09:51:30.207Z,16.80
2018-11-06T09:52:30.207Z,17.10
2018-11-06T09:53:30.239Z,17.40
2018-11-06T09:54:30.178Z,16.60
2018-11-06T09:55:30.186Z,16.10
2018-11-06T09:56:30.184Z,16.90
2018-11-06T09:57:30.149Z,17.50
2018-11-06T09:58:30.173Z,17.40
2018-11-06T09:59:30.119Z,17.10
2018-11-06T10:00:30.102Z,16.20
2018-11-06T10:01:30.099Z,16.20
2018-11-06T10:02:30.096Z,17.10
2018-11-06T10:03:30.104Z,16.60
2018-11-06T10:04:30.073Z,16.90
2018-11-06T10:05:30.057Z,16.80
2018-11-06T10:06:30.187Z,16.80
2018-11-06T10:07:30.051Z,16.30
2018-11-06T10:08:30.204Z,16.50
2018-11-06T10:09:30.044Z,15.90
2018-11-06T10:10:30.001Z,16.70
2018-11-06T10:11:30.138Z,16.90
2018-11-06T10:12:30.108Z,17.20
2018-11-06T10:13:30.046Z,16.30
2018-11-06T10:14:29.964Z,16.80
2018-11-06T10:15:29.962Z,16.20
2018-11-06T10:16:29.934Z,16.10
2018-11-06T10:17:29.923Z,16.00
2018-11-06T10:18:30.056Z,16.10
2018-11-06T10:19:29.859Z,16.80
2018-11-06T10:20:29.896Z,16.30
2018-11-06T10:21:29.883Z,16.30
2018-11-06T10:22:29.982Z,15.70
2018-11-06T10:23:29.811Z,16.00
2018-11-06T10:24:30.119Z,15.80
2018-11-06T10:25:29.880Z,15.80
2018-11-06T10:26:29.778Z,15.60
2018-11-06T10:27:29.817Z,15.50
2018-11-06T10:28:29.889Z,15.40
2018-11-06T10:29:29.802Z,15.20
2018-11-06T10:30:29.817Z,15.90
2018-11-06T10:31:29.784Z,15.80
2018-11-06T10:32:29.771Z,15.60
2018-11-06T10:33:29.748Z,15.90
2018-11-06T10:34:29.739Z,16.60
2018-11-06T10:35:29.759Z,15.10
2018-11-06T10:36:29.722Z,15.70
2018-11-06T10:37:29.707Z,15.50
2018-11-06T10:38:29.763Z,15.80
2018-11-06T10:39:29.680Z,15.00
2018-11-06T10:40:29.694Z,15.20
2018-11-06T10:41:29.668Z,15.30
2018-11-06T10:42:29.652Z,15.80
2018-11-06T10:43:29.691Z,16.50
2018-11-06T10:44:29.629Z,15.40
2018-11-06T10:45:29.625Z,15.90
2018-11-06T10:46:29.614Z,15.90
2018-11-06T10:47:29.604Z,14.80
2018-11-06T10:48:29.613Z,15.50
2018-11-06T10:49:29.539Z,15.40
2018-11-06T10:50:29.609Z,16.00
2018-11-06T10:51:29.556Z,16.30
2018-11-06T10:52:29.544Z,16.10
2018-11-06T10:53:29.532Z,15.20
2018-11-06T10:54:29.523Z,16.00
2018-11-06T10:55:29.547Z,15.00
2018-11-06T10:56:29.501Z,16.00
2018-11-06T10:57:29.530Z,15.80
2018-11-06T10:58:29.490Z,16.20
2018-11-06T10:59:29.498Z,16.20
2018-11-06T11:00:29.455Z,16.20
2018-11-06T11:01:29.458Z,16.30
2018-11-06T11:02:29.443Z,16.30
2018-11-06T11:03:29.463Z,16.00
2018-11-06T11:04:29.429Z,15.30
2018-11-06T11:05:29.366Z,15.30
2018-11-06T11:06:29.398Z,15.00
2018-11-06T11:07:29.386Z,15.10
2018-11-06T11:08:29.418Z,15.50
2018-11-06T11:09:29.372Z,14.10
2018-11-06T11:10:29.305Z,14.90
2018-11-06T11:11:29.305Z,15.80
2018-11-06T11:12:29.337Z,14.90
2018-11-06T11:13:29.430Z,14.50
2018-11-06T11:14:29.307Z,14.90
2018-11-06T11:15:29.417Z,15.00
2018-11-06T11:16:29.284Z,15.20
2018-11-06T11:17:29.333Z,15.10
2018-11-06T11:18:29.294Z,17.30
2018-11-06T11:19:29.254Z,14.90
2018-11-06T11:20:29.248Z,15.80
2018-11-06T11:21:29.185Z,14.50
2018-11-06T11:22:29.225Z,15.20
2018-11-06T11:23:29.243Z,13.60
2018-11-06T11:24:29.209Z,15.20
2018-11-06T11:25:29.260Z,14.90
2018-11-06T11:26:29.188Z,14.80
2018-11-06T11:27:29.191Z,14.70
2018-11-06T11:28:29.165Z,14.90
2018-11-06T11:29:29.221Z,13.70
2018-11-06T11:30:29.136Z,13.80
2018-11-06T11:31:29.137Z,14.90
2018-11-06T11:32:29.178Z,14.40
2018-11-06T11:33:29.126Z,14.40
2018-11-06T11:34:29.165Z,14.20
2018-11-06T11:35:29.079Z,14.20
2018-11-06T11:36:29.071Z,14.10
2018-11-06T11:37:29.123Z,14.20
2018-11-06T11:38:29.047Z,14.30
2018-11-06T11:39:29.033Z,14.20
2018-11-06T11:40:29.027Z,13.00
2018-11-06T11:41:29.012Z,13.50
2018-11-06T11:42:29.036Z,13.80
2018-11-06T11:43:28.940Z,13.50
2018-11-06T11:44:28.935Z,13.40
2018-11-06T11:45:28.977Z,13.40
2018-11-06T11:46:28.983Z,13.00
2018-11-06T11:47:28.904Z,13.20
2018-11-06T11:48:28.938Z,14.20
2018-11-06T11:49:28.923Z,13.00
2018-11-06T11:50:28.921Z,12.80
2018-11-06T11:51:28.934Z,12.60
2018-11-06T11:52:28.881Z,13.10
2018-11-06T11:53:28.838Z,13.40
2018-11-06T11:54:28.874Z,12.80
2018-11-06T11:55:28.853Z,12.80
2018-11-06T11:56:28.846Z,12.50
2018-11-06T11:57:28.899Z,12.90
2018-11-06T11:58:28.827Z,13.80
2018-11-06T11:59:28.816Z,13.00
2018-11-06T12:00:28.800Z,13.60
2018-11-06T12:01:28.795Z,12.70
2018-11-06T12:02:28.812Z,13.50
2018-11-06T12:03:28.768Z,12.90
2018-11-06T12:04:28.756Z,13.00
2018-11-06T12:05:28.762Z,13.20
2018-11-06T12:06:28.768Z,14.10
2018-11-06T12:07:28.726Z,13.10
2018-11-06T12:08:28.880Z,12.80
2018-11-06T12:09:28.702Z,12.60
2018-11-06T12:10:28.772Z,11.70
2018-11-06T12:11:28.713Z,11.90
2018-11-06T12:12:28.679Z,11.60
2018-11-06T12:13:28.700Z,11.40
2018-11-06T12:14:28.613Z,12.00
2018-11-06T12:15:28.591Z,12.10
2018-11-06T12:16:28.636Z,12.30
2018-11-06T12:17:28.655Z,12.20
2018-11-06T12:18:28.760Z,11.40
2018-11-06T12:19:28.591Z,11.60
2018-11-06T12:20:28.669Z,12.20
2018-11-06T12:21:28.528Z,11.80
2018-11-06T12:22:28.563Z,11.90
2018-11-06T12:23:28.587Z,12.30
2018-11-06T12:24:28.685Z,12.40
2018-11-06T12:25:28.635Z,11.20
2018-11-06T12:26:28.517Z,12.50
2018-11-06T12:27:28.504Z,12.10
2018-11-06T12:28:28.504Z,10.90
2018-11-06T12:29:28.524Z,11.80
2018-11-06T12:30:28.475Z,19.90
2018-11-06T12:31:28.428Z,29.20
2018-11-06T12:32:28.472Z,44.40
2018-11-06T12:33:28.468Z,30.60
2018-11-06T12:34:28.586Z,14.80
2018-11-06T12:35:28.461Z,14.00
2018-11-06T12:36:28.505Z,12.00
2018-11-06T12:37:28.410Z,11.80
2018-11-06T12:38:28.387Z,12.10
2018-11-06T12:39:28.409Z,12.00
2018-11-06T12:40:28.396Z,11.50
2018-11-06T12:41:28.308Z,12.60
2018-11-06T12:42:28.380Z,12.50
2018-11-06T12:43:28.395Z,37.50
2018-11-06T12:44:28.334Z,14.80
2018-11-06T12:45:28.348Z,13.50
2018-11-06T12:46:28.299Z,11.30
2018-11-06T12:47:28.297Z,11.20
2018-11-06T12:48:28.275Z,17.40
2018-11-06T12:49:28.324Z,12.50
2018-11-06T12:50:28.521Z,10.40
2018-11-06T12:51:28.273Z,21.00
2018-11-06T12:52:28.186Z,11.00
2018-11-06T12:53:28.262Z,10.10